Time;durP1;ratioP1;P1;durP2;ratioP2;P2;SDS_P1;SDS_P2;PMS_P1;PMS_P2;Temp;Humidity;BMP_temperature;BMP_pressure;BME280_temperature;BME280_humidity;BME280_pressure;Samples;Min_cycle;Max_cycle;Signal;HPM_P1;HPM_P2
2021/11/03 00:00:39;;;;;;;4.47;4.10;;;7.00;1.00;;;;;;4881559;29;20207;-87
2021/11/03 00:03:06;;;;;;;5.20;4.80;;;7.00;1.00;;;;;;4885344;29;20204;-87
2021/11/03 00:05:32;;;;;;;5.57;5.07;;;7.10;1.00;;;;;;4868714;29;20197;-87
2021/11/03 00:07:57;;;;;;;4.60;4.27;;;7.40;1.00;;;;;;4879081;29;20213;-87
2021/11/03 00:10:24;;;;;;;7.33;4.33;;;7.60;1.00;;;;;;4875365;29;20204;-87
2021/11/03 00:12:50;;;;;;;4.90;4.50;;;7.30;1.00;;;;;;4880833;29;20212;-87
2021/11/03 00:15:17;;;;;;;4.70;4.30;;;;;;;;;;4880440;29;20686;-87
2021/11/03 00:17:43;;;;;;;5.20;4.80;;;7.20;1.00;;;;;;4876116;29;20203;-87
2021/11/03 00:20:10;;;;;;;4.17;3.87;;;7.30;1.00;;;;;;4880977;29;20200;-87
2021/11/03 00:22:36;;;;;;;8.33;4.77;;;;;;;;;;4882236;29;20249;-87
2021/11/03 00:25:03;;;;;;;5.07;4.57;;;7.40;1.00;;;;;;4882465;29;20219;-87
2021/11/03 00:27:29;;;;;;;5.53;4.87;;;7.40;1.00;;;;;;4874192;29;20211;-87
2021/11/03 00:29:55;;;;;;;5.87;4.63;;;7.20;1.00;;;;;;4885732;29;20786;-87
2021/11/03 00:32:21;;;;;;;4.73;4.37;;;;;;;;;;4884074;29;20201;-87
2021/11/03 00:34:47;;;;;;;5.10;4.37;;;;;;;;;;4875107;29;20192;-87
2021/11/03 00:37:14;;;;;;;5.07;4.67;;;7.20;1.00;;;;;;4879547;29;20212;-87
2021/11/03 00:39:40;;;;;;;4.87;4.47;;;;;;;;;;4884274;29;20200;-87
2021/11/03 00:42:06;;;;;;;6.17;4.90;;;7.30;1.00;;;;;;4883676;29;20267;-87
2021/11/03 00:44:32;;;;;;;3.67;3.37;;;;;;;;;;4878302;29;20205;-87
2021/11/03 00:46:58;;;;;;;4.93;4.00;;;7.20;1.00;;;;;;4876410;29;20209;-87
2021/11/03 00:49:23;;;;;;;4.77;4.10;;;7.30;1.00;;;;;;4882619;29;20545;-87
2021/11/03 00:51:49;;;;;;;4.53;4.13;;;8.70;1.00;;;;;;4884812;29;20249;-87
2021/11/03 00:54:15;;;;;;;7.43;4.30;;;7.30;1.00;;;;;;4889904;29;20248;-88
2021/11/03 00:56:41;;;;;;;6.30;5.73;;;;;;;;;;4888670;29;20199;-87
2021/11/03 00:59:07;;;;;;;5.43;5.03;;;7.60;1.00;;;;;;4890064;29;20200;-88
2021/11/03 01:01:33;;;;;;;5.10;4.70;;;7.60;1.00;;;;;;4891631;29;20192;-87
2021/11/03 01:03:59;;;;;;;5.37;4.87;;;7.60;1.00;;;;;;4883285;29;20263;-87
2021/11/03 01:06:24;;;;;;;5.37;4.87;;;10.10;1.00;;;;;;4878490;29;20235;-88
2021/11/03 01:08:50;;;;;;;4.87;4.47;;;7.50;1.00;;;;;;4886337;29;20212;-87
2021/11/03 01:11:16;;;;;;;5.50;5.10;;;;;;;;;;4886749;29;20193;-88
2021/11/03 01:13:43;;;;;;;6.27;5.77;;;;;;;;;;4883672;29;20205;-88
2021/11/03 01:16:08;;;;;;;5.33;4.93;;;7.50;1.00;;;;;;4872890;29;20209;-88
2021/11/03 01:18:34;;;;;;;4.90;4.50;;;7.60;1.00;;;;;;4887200;29;20724;-87
2021/11/03 01:21:02;;;;;;;6.03;5.43;;;7.60;1.00;;;;;;4884534;29;20277;-87
2021/11/03 01:23:28;;;;;;;5.33;4.93;;;7.50;1.00;;;;;;4883030;29;20211;-88
2021/11/03 01:25:54;;;;;;;5.00;4.60;;;;;;;;;;4889649;29;20224;-88
2021/11/03 01:28:20;;;;;;;5.30;4.90;;;;;;;;;;4883153;29;20200;-87
2021/11/03 01:30:47;;;;;;;6.43;5.83;;;7.50;1.00;;;;;;4884509;29;20746;-87
2021/11/03 01:33:16;;;;;;;6.87;6.30;;;7.80;1.00;;;;;;4879958;29;20904;-87
2021/11/03 01:35:42;;;;;;;8.73;7.93;;;8.90;1.00;;;;;;4888585;29;20661;-88
2021/11/03 01:38:08;;;;;;;8.20;6.97;;;7.90;1.00;;;;;;4878634;29;20205;-87
2021/11/03 01:40:37;;;;;;;9.10;8.20;;;8.00;1.00;;;;;;4882708;29;20290;-88
2021/11/03 01:43:05;;;;;;;8.90;8.13;;;8.50;1.00;;;;;;4893362;29;20203;-88
2021/11/03 01:45:31;;;;;;;9.17;8.47;;;7.80;1.00;;;;;;4885977;29;20220;-88
2021/11/03 01:48:06;;;;;;;9.20;8.20;;;7.80;1.00;;;;;;4874709;29;20285;-88
2021/11/03 01:50:48;;;;;;;8.67;7.87;;;10.80;1.00;;;;;;4887982;29;20192;-88
2021/11/03 01:53:18;;;;;;;9.63;8.73;;;7.70;1.00;;;;;;4878486;29;20193;-88
2021/11/03 01:56:02;;;;;;;9.40;8.57;;;8.00;1.00;;;;;;4883067;29;20188;-88
2021/11/03 01:58:38;;;;;;;8.97;8.17;;;8.00;1.00;;;;;;4884169;29;20213;-88
2021/11/03 02:01:04;;;;;;;8.80;8.00;;;8.00;1.00;;;;;;4880305;29;20200;-88
2021/11/03 02:03:31;;;;;;;9.73;8.83;;;8.10;1.00;;;;;;4885137;29;20665;-88
2021/11/03 02:06:00;;;;;;;9.90;8.90;;;7.70;1.00;;;;;;4881231;29;20252;-88
2021/11/03 02:08:29;;;;;;;9.37;8.47;;;7.70;1.00;;;;;;4879920;29;20216;-88
2021/11/03 02:10:55;;;;;;;9.00;7.50;;;7.70;1.00;;;;;;4877588;29;20204;-88
2021/11/03 02:13:21;;;;;;;8.30;7.60;;;8.20;1.00;;;;;;4874640;29;20198;-88
2021/11/03 02:15:47;;;;;;;7.27;6.70;;;8.30;1.00;;;;;;4879384;29;20225;-88
2021/11/03 02:18:16;;;;;;;7.17;6.57;;;7.70;1.00;;;;;;4887524;29;20201;-89
2021/11/03 02:20:45;;;;;;;7.33;6.73;;;7.60;1.00;;;;;;4885638;29;20192;-88
2021/11/03 02:23:31;;;;;;;8.47;7.57;;;9.80;1.00;;;;;;4885171;29;20218;-88
2021/11/03 02:26:09;;;;;;;7.40;6.70;;;7.50;1.00;;;;;;4885322;29;20646;-89
2021/11/03 02:28:36;;;;;;;7.07;6.40;;;7.60;1.00;;;;;;4884579;29;20200;-88
2021/11/03 02:31:02;;;;;;;7.27;6.57;;;;;;;;;;4884262;29;20193;-88
2021/11/03 02:33:29;;;;;;;6.63;6.03;;;7.70;1.00;;;;;;4882864;29;20221;-88
2021/11/03 02:36:03;;;;;;;6.27;5.77;;;7.80;1.00;;;;;;4885797;29;20201;-88
2021/11/03 02:38:36;;;;;;;6.33;5.83;;;7.80;1.00;;;;;;4881772;29;20255;-88
2021/11/03 02:41:11;;;;;;;7.00;6.30;;;7.60;1.00;;;;;;4875671;29;20197;-88
2021/11/03 02:43:48;;;;;;;6.87;5.90;;;7.60;1.00;;;;;;4884800;29;20203;-89
2021/11/03 02:46:15;;;;;;;6.00;5.50;;;7.60;1.00;;;;;;4881635;29;20212;-88
2021/11/03 02:48:41;;;;;;;5.93;5.43;;;7.60;1.00;;;;;;4878219;29;20708;-88
2021/11/03 02:51:10;;;;;;;6.53;5.83;;;9.60;1.00;;;;;;4886400;29;20196;-88
2021/11/03 02:53:48;;;;;;;6.70;6.10;;;7.50;1.00;;;;;;4883388;29;20192;-88
2021/11/03 02:56:18;;;;;;;7.23;5.80;;;7.40;1.00;;;;;;4880550;29;20216;-88
2021/11/03 02:58:45;;;;;;;6.67;6.13;;;7.40;1.00;;;;;;4879937;29;20220;-88
2021/11/03 03:01:18;;;;;;;7.37;6.00;;;8.00;1.00;;;;;;4884913;29;20676;-88
2021/11/03 03:03:45;;;;;;;5.87;5.33;;;7.40;1.00;;;;;;4872736;29;20666;-88
2021/11/03 03:06:16;;;;;;;6.33;5.83;;;7.40;1.00;;;;;;4884036;29;20264;-87
2021/11/03 03:08:42;;;;;;;6.67;5.73;;;;;;;;;;4886180;29;20184;-89
2021/11/03 03:11:08;;;;;;;5.93;5.43;;;7.40;1.00;;;;;;4882331;29;20193;-88
2021/11/03 03:13:34;;;;;;;5.93;5.43;;;7.40;1.00;;;;;;4882615;29;20200;-88
2021/11/03 03:16:00;;;;;;;5.07;4.67;;;7.30;1.00;;;;;;4885088;29;20190;-88
2021/11/03 03:18:25;;;;;;;5.27;4.77;;;7.30;1.00;;;;;;4885279;29;20193;-89
2021/11/03 03:20:51;;;;;;;5.50;4.67;;;7.30;1.00;;;;;;4885810;29;20249;-88
2021/11/03 03:23:17;;;;;;;4.87;4.47;;;;;;;;;;4885213;29;20200;-88
2021/11/03 03:25:44;;;;;;;5.80;5.20;;;7.20;1.00;;;;;;4882445;29;20245;-88
2021/11/03 03:28:11;;;;;;;4.37;4.07;;;7.30;1.00;;;;;;4880262;29;20722;-88
2021/11/03 03:30:37;;;;;;;5.00;4.40;;;8.20;1.00;;;;;;4884529;29;20213;-88
2021/11/03 03:33:02;;;;;;;4.13;3.83;;;8.20;1.00;;;;;;4877516;29;20219;-88
2021/11/03 03:35:28;;;;;;;4.10;3.70;;;;;;;;;;4882108;29;20212;-88
2021/11/03 03:37:54;;;;;;;4.40;4.00;;;7.40;1.00;;;;;;4882761;29;20192;-88
2021/11/03 03:40:20;;;;;;;4.30;4.00;;;7.40;1.00;;;;;;4884788;29;20200;-88
2021/11/03 03:42:46;;;;;;;4.57;4.17;;;8.80;1.00;;;;;;4880237;29;20205;-88
2021/11/03 03:45:12;;;;;;;4.53;4.23;;;7.30;1.00;;;;;;4877316;29;20252;-88
2021/11/03 03:47:38;;;;;;;4.10;3.67;;;;;;;;;;4880524;29;20197;-88
2021/11/03 03:50:05;;;;;;;3.77;3.50;;;7.30;1.00;;;;;;4884343;29;20196;-88
2021/11/03 03:52:32;;;;;;;4.50;3.93;;;7.30;1.00;;;;;;4879985;29;20287;-88
2021/11/03 03:54:58;;;;;;;3.83;3.53;;;;;;;;;;4882859;29;20258;-87
2021/11/03 03:57:23;;;;;;;4.10;3.80;;;7.30;1.00;;;;;;4873593;29;20197;-88
2021/11/03 03:59:49;;;;;;;4.10;3.77;;;9.60;1.00;;;;;;4882677;29;20208;-88
2021/11/03 04:02:15;;;;;;;4.40;4.00;;;8.90;1.00;;;;;;4876277;29;20666;-88
2021/11/03 04:04:40;;;;;;;3.87;3.57;;;8.50;1.00;;;;;;4875161;29;20252;-88
2021/11/03 04:07:07;;;;;;;3.80;3.40;;;;;;;;;;4877878;29;20276;-88
2021/11/03 04:09:33;;;;;;;3.73;3.43;;;7.30;1.00;;;;;;4885595;29;20185;-88
2021/11/03 04:11:59;;;;;;;5.77;4.13;;;7.40;1.00;;;;;;4882821;29;20240;-88
2021/11/03 04:14:25;;;;;;;4.20;3.90;;;10.90;1.00;;;;;;4877349;29;20189;-88
2021/11/03 04:16:50;;;;;;;3.87;3.57;;;7.50;1.00;;;;;;4883894;29;20212;-88
2021/11/03 04:19:16;;;;;;;4.00;3.67;;;7.90;1.00;;;;;;4882674;29;20188;-89
2021/11/03 04:21:42;;;;;;;4.70;4.30;;;7.60;1.00;;;;;;4875553;29;20208;-88
2021/11/03 04:24:08;;;;;;;4.47;3.80;;;;;;;;;;4885055;29;20200;-88
2021/11/03 04:26:36;;;;;;;3.97;3.67;;;7.70;1.00;;;;;;4888428;29;20300;-88
2021/11/03 04:29:04;;;;;;;4.13;3.73;;;7.70;1.00;;;;;;4885516;29;20669;-88
2021/11/03 04:31:30;;;;;;;4.13;3.73;;;7.60;1.00;;;;;;4881795;29;20203;-88
2021/11/03 04:33:56;;;;;;;4.20;3.90;;;;;;;;;;4882642;29;20625;-88
2021/11/03 04:36:23;;;;;;;4.87;4.37;;;7.60;1.00;;;;;;4887821;29;20200;-88
2021/11/03 04:38:52;;;;;;;3.87;3.53;;;8.80;1.00;;;;;;4885755;29;20207;-88
2021/11/03 04:41:18;;;;;;;3.90;3.60;;;9.60;1.00;;;;;;4880353;29;20201;-88
2021/11/03 04:43:46;;;;;;;4.33;3.93;;;10.70;1.00;;;;;;4875996;29;20711;-89
2021/11/03 04:46:14;;;;;;;3.43;3.20;;;7.70;1.00;;;;;;4876264;29;20251;-89
2021/11/03 04:48:40;;;;;;;4.27;3.97;;;;;;;;;;4875745;29;20200;-89
2021/11/03 04:51:05;;;;;;;3.83;3.53;;;7.70;1.00;;;;;;4875057;29;20216;-89
2021/11/03 04:53:31;;;;;;;4.17;3.77;;;;;;;;;;4884686;29;20207;-89
2021/11/03 04:55:58;;;;;;;3.97;3.67;;;7.60;1.00;;;;;;4886792;29;20228;-88
2021/11/03 04:58:24;;;;;;;3.47;3.20;;;7.60;1.00;;;;;;4886025;29;20201;-89
2021/11/03 05:00:51;;;;;;;4.53;3.87;;;7.60;1.00;;;;;;4885923;29;20286;-88
2021/11/03 05:03:17;;;;;;;4.27;3.87;;;7.70;1.00;;;;;;4885131;29;20237;-88
2021/11/03 05:05:43;;;;;;;3.93;3.63;;;7.60;1.00;;;;;;4882801;29;20238;-89
2021/11/03 05:08:09;;;;;;;4.03;3.67;;;7.60;1.00;;;;;;4882133;29;20193;-88
2021/11/03 05:10:36;;;;;;;3.77;3.47;;;7.60;1.00;;;;;;4884311;29;20217;-89
2021/11/03 05:13:01;;;;;;;4.70;3.60;;;7.70;1.00;;;;;;4887924;29;20208;-88
2021/11/03 05:15:27;;;;;;;4.40;4.00;;;7.70;1.00;;;;;;4882552;29;20383;-88
2021/11/03 05:17:53;;;;;;;4.53;4.13;;;9.10;1.00;;;;;;4880877;29;20193;-87
2021/11/03 05:20:20;;;;;;;3.97;3.67;;;7.50;1.00;;;;;;4880922;29;20265;-88
2021/11/03 05:22:47;;;;;;;3.80;3.50;;;;;;;;;;4882021;29;20193;-87
2021/11/03 05:25:17;;;;;;;4.20;3.90;;;7.60;1.00;;;;;;4882841;29;20209;-87
2021/11/03 05:27:42;;;;;;;4.27;3.77;;;7.50;1.00;;;;;;4888285;29;20211;-88
2021/11/03 05:30:09;;;;;;;3.60;3.30;;;7.40;1.00;;;;;;4888880;29;20200;-88
2021/11/03 05:32:35;;;;;;;4.70;4.13;;;;;;;;;;4887936;29;20216;-88
2021/11/03 05:35:01;;;;;;;4.47;4.07;;;7.70;1.00;;;;;;4883158;29;20204;-87
2021/11/03 05:37:27;;;;;;;4.17;3.87;;;;;;;;;;4882934;29;20201;-87
2021/11/03 05:39:54;;;;;;;4.37;3.87;;;;;;;;;;4894251;29;20201;-88
2021/11/03 05:42:20;;;;;;;5.17;4.00;;;;;;;;;;4885173;29;20211;-87
2021/11/03 05:44:46;;;;;;;4.60;3.97;;;;;;;;;;4891374;29;20218;-87
2021/11/03 05:47:23;;;;;;;5.63;4.97;;;7.60;1.00;;;;;;4889908;29;20631;-88
2021/11/03 05:49:50;;;;;;;5.20;4.30;;;;;;;;;;4876514;29;20197;-88
2021/11/03 05:52:16;;;;;;;4.73;4.43;;;;;;;;;;4881028;29;20255;-88
2021/11/03 05:54:42;;;;;;;4.57;4.17;;;;;;;;;;4864742;29;20220;-88
2021/11/03 05:57:14;;;;;;;4.50;4.13;;;7.60;1.00;;;;;;4887938;29;20243;-88
2021/11/03 05:59:40;;;;;;;4.70;4.30;;;7.50;1.00;;;;;;4880442;29;20253;-88
2021/11/03 06:02:06;;;;;;;5.53;4.97;;;7.50;1.00;;;;;;4883390;29;20657;-88
2021/11/03 06:04:32;;;;;;;5.80;5.23;;;;;;;;;;4882420;29;20224;-88
2021/11/03 06:06:58;;;;;;;6.80;5.60;;;;;;;;;;4888032;29;20299;-88
2021/11/03 06:09:24;;;;;;;5.87;5.37;;;;;;;;;;4889149;29;20220;-90
2021/11/03 06:11:50;;;;;;;7.07;5.43;;;;;;;;;;4886405;29;20684;-88
2021/11/03 06:14:16;;;;;;;6.03;5.50;;;;;;;;;;4885478;29;20212;-88
2021/11/03 06:16:43;;;;;;;6.43;5.83;;;;;;;;;;4880679;29;20270;-89
2021/11/03 06:19:08;;;;;;;6.47;5.77;;;7.50;1.00;;;;;;4871089;29;20208;-88
2021/11/03 06:21:34;;;;;;;6.90;6.23;;;7.50;1.00;;;;;;4867127;29;20205;-89
2021/11/03 06:24:01;;;;;;;5.60;5.10;;;7.50;1.00;;;;;;4879023;29;20193;-88
2021/11/03 06:26:27;;;;;;;6.83;5.77;;;;;;;;;;4882578;29;20240;-87
2021/11/03 06:28:53;;;;;;;6.90;6.30;;;;;;;;;;4867380;29;20217;-88
2021/11/03 06:31:19;;;;;;;6.67;6.07;;;;;;;;;;4863473;29;20696;-86
2021/11/03 06:33:45;;;;;;;6.63;5.83;;;;;;;;;;4872030;29;20236;-81
2021/11/03 06:36:13;;;;;;;6.97;6.37;;;7.60;1.00;;;;;;4887444;29;20208;-81
2021/11/03 06:38:39;;;;;;;8.20;5.93;;;7.60;1.00;;;;;;4871428;29;20696;-81
2021/11/03 06:41:06;;;;;;;7.07;6.37;;;7.60;1.00;;;;;;4869714;29;20205;-83
2021/11/03 06:43:32;;;;;;;6.17;5.60;;;;;;;;;;4871994;29;20193;-83
2021/11/03 06:45:58;;;;;;;7.40;6.70;;;;;;;;;;4886931;29;20235;-82
2021/11/03 06:48:24;;;;;;;6.77;6.17;;;7.60;1.00;;;;;;4883497;29;20212;-81
2021/11/03 06:50:51;;;;;;;7.03;6.33;;;7.60;1.00;;;;;;4879415;29;20656;-81
2021/11/03 06:53:19;;;;;;;6.90;6.30;;;7.70;1.00;;;;;;4887567;29;21301;-81
2021/11/03 06:55:46;;;;;;;7.10;6.40;;;7.70;1.00;;;;;;4886689;29;20246;-81
2021/11/03 06:58:12;;;;;;;6.90;6.17;;;9.00;1.00;;;;;;4883372;29;20269;-81
2021/11/03 07:00:41;;;;;;;7.27;6.57;;;7.70;1.00;;;;;;4880682;29;20225;-81
2021/11/03 07:03:07;;;;;;;6.43;5.87;;;;;;;;;;4884598;29;20229;-79
2021/11/03 07:05:35;;;;;;;5.97;5.47;;;7.70;1.00;;;;;;4884305;29;20244;-79
2021/11/03 07:08:00;;;;;;;6.47;5.87;;;7.80;1.00;;;;;;4870072;29;20206;-80
2021/11/03 07:10:34;;;;;;;9.33;5.53;;;7.80;1.00;;;;;;4878240;29;20248;-81
2021/11/03 07:13:00;;;;;;;6.00;5.33;;;7.70;1.00;;;;;;4870697;29;20332;-82
2021/11/03 07:15:27;;;;;;;5.00;4.53;;;7.80;1.00;;;;;;4878657;29;20182;-81
2021/11/03 07:17:54;;;;;;;5.47;4.97;;;7.90;1.00;;;;;;4880048;29;20197;-82
2021/11/03 07:20:21;;;;;;;5.90;5.40;;;7.90;1.00;;;;;;4877647;29;20193;-86
2021/11/03 07:22:47;;;;;;;6.20;5.70;;;;;;;;;;4874449;29;20201;-85
2021/11/03 07:25:17;;;;;;;7.20;5.70;;;7.90;1.00;;;;;;4884289;29;20248;-86
2021/11/03 07:27:44;;;;;;;6.63;6.03;;;7.90;1.00;;;;;;4885879;29;20653;-84
2021/11/03 07:30:11;;;;;;;6.53;5.90;;;11.00;1.00;;;;;;4879873;29;20193;-84
2021/11/03 07:32:37;;;;;;;6.67;6.03;;;;;;;;;;4882675;29;20204;-84
2021/11/03 07:35:04;;;;;;;6.27;5.50;;;7.90;1.00;;;;;;4875841;29;20719;-83
2021/11/03 07:37:29;;;;;;;112.63;38.80;;;8.00;1.00;;;;;;4876028;29;20200;-83
2021/11/03 07:39:55;;;;;;;6.40;5.53;;;;;;;;;;4881032;29;20277;-83
2021/11/03 07:42:21;;;;;;;6.47;5.90;;;7.80;1.00;;;;;;4881521;29;20609;-84
2021/11/03 07:44:47;;;;;;;5.97;5.43;;;7.80;1.00;;;;;;4882790;29;20215;-84
2021/11/03 07:47:13;;;;;;;6.07;5.50;;;7.70;1.00;;;;;;4883053;29;20205;-83
2021/11/03 07:49:38;;;;;;;29.50;16.63;;;7.70;1.00;;;;;;4884240;29;20375;-83
2021/11/03 07:52:04;;;;;;;5.77;5.20;;;7.70;1.00;;;;;;4907281;29;20332;-83
2021/11/03 07:54:30;;;;;;;5.17;4.67;;;7.70;1.00;;;;;;4875275;29;20193;-83
2021/11/03 07:56:56;;;;;;;5.17;4.67;;;7.70;1.00;;;;;;4880210;29;20241;-83
2021/11/03 07:59:22;;;;;;;5.77;4.60;;;;;;;;;;4875427;29;20197;-83
2021/11/03 08:01:48;;;;;;;4.63;4.23;;;;;;;;;;4881461;29;20287;-83
2021/11/03 08:04:14;;;;;;;4.77;4.30;;;;;;;;;;4878972;29;20210;-83
2021/11/03 08:06:40;;;;;;;12.57;4.40;;;7.90;1.00;;;;;;4888289;29;20224;-83
2021/11/03 08:09:07;;;;;;;7.77;4.63;;;8.00;1.00;;;;;;4885686;29;20193;-83
2021/11/03 08:11:45;;;;;;;6.53;4.20;;;8.00;1.00;;;;;;4878782;29;20185;-83
2021/11/03 08:14:11;;;;;;;6.53;6.03;;;7.90;1.00;;;;;;4879009;29;20196;-83
2021/11/03 08:16:51;;;;;;;4.10;3.80;;;7.90;1.00;;;;;;4882446;29;20201;-83
2021/11/03 08:19:18;;;;;;;4.17;3.87;;;7.90;1.00;;;;;;4882962;29;20197;-82
2021/11/03 08:21:43;;;;;;;3.87;3.57;;;7.90;1.00;;;;;;4884096;29;20196;-83
2021/11/03 08:24:09;;;;;;;5.13;4.77;;;;;;;;;;4887436;29;20200;-83
2021/11/03 08:26:36;;;;;;;3.93;3.63;;;;;;;;;;4884862;29;20228;-83
2021/11/03 08:29:02;;;;;;;4.50;4.07;;;7.90;1.00;;;;;;4880731;29;20205;-82
2021/11/03 08:31:27;;;;;;;5.10;3.47;;;7.90;1.00;;;;;;4884870;29;20329;-84
2021/11/03 08:33:53;;;;;;;7.30;6.70;;;9.90;1.00;;;;;;4883046;29;20590;-84
2021/11/03 08:36:19;;;;;;;4.37;3.97;;;9.10;1.00;;;;;;4882550;29;20718;-84
2021/11/03 08:38:50;;;;;;;3.57;3.27;;;8.10;1.00;;;;;;4879223;29;20200;-83
2021/11/03 08:41:19;;;;;;;4.53;3.90;;;;;;;;;;4881691;29;20216;-82
2021/11/03 08:43:45;;;;;;;3.70;3.40;;;8.00;1.00;;;;;;4878383;29;20193;-83
2021/11/03 08:46:10;;;;;;;26.90;8.53;;;7.90;1.00;;;;;;4877603;29;20224;-82
2021/11/03 08:48:36;;;;;;;4.53;3.30;;;;;;;;;;4880083;29;20208;-81
2021/11/03 08:51:03;;;;;;;4.20;3.83;;;;;;;;;;4884346;29;20201;-81
2021/11/03 08:53:28;;;;;;;4.40;4.03;;;7.90;1.00;;;;;;4889716;29;20196;-82
2021/11/03 08:55:54;;;;;;;4.10;3.80;;;7.90;1.00;;;;;;4888914;29;20232;-81
2021/11/03 08:58:22;;;;;;;4.87;3.73;;;8.00;1.00;;;;;;4884108;29;20662;-81
2021/11/03 09:00:52;;;;;;;3.97;3.60;;;8.20;1.00;;;;;;4886110;29;20193;-81
2021/11/03 09:03:18;;;;;;;4.07;3.77;;;8.10;1.00;;;;;;4886973;29;20316;-81
2021/11/03 09:05:44;;;;;;;3.83;3.53;;;8.40;1.00;;;;;;4882021;29;20243;-80
2021/11/03 09:08:11;;;;;;;3.47;3.23;;;8.10;1.00;;;;;;4884154;29;20197;-82
2021/11/03 09:10:47;;;;;;;4.13;3.73;;;8.10;1.00;;;;;;4883142;29;20217;-83
2021/11/03 09:13:18;;;;;;;3.97;3.57;;;8.20;1.00;;;;;;4870022;29;20233;-85
2021/11/03 09:15:45;;;;;;;4.20;3.87;;;8.20;1.00;;;;;;4880769;29;20204;-85
2021/11/03 09:18:11;;;;;;;9.90;7.93;;;8.20;1.00;;;;;;4883231;29;20201;-85
2021/11/03 09:20:38;;;;;;;18.27;10.57;;;8.40;1.00;;;;;;4882851;29;20221;-83
2021/11/03 09:23:04;;;;;;;3.83;3.53;;;10.10;1.00;;;;;;4888436;29;20203;-84
2021/11/03 09:25:30;;;;;;;3.80;3.50;;;8.20;1.00;;;;;;4885210;29;20277;-83
2021/11/03 09:27:56;;;;;;;3.70;3.40;;;9.00;1.00;;;;;;4889090;29;20254;-83
2021/11/03 09:30:26;;;;;;;4.70;4.17;;;8.30;1.00;;;;;;4882510;29;20216;-85
2021/11/03 09:32:55;;;;;;;3.30;3.10;;;8.40;1.00;;;;;;4879067;29;20194;-84
2021/11/03 09:35:24;;;;;;;3.60;3.30;;;8.40;1.00;;;;;;4882631;29;20287;-85
2021/11/03 09:37:50;;;;;;;3.57;3.27;;;;;;;;;;4887169;29;20205;-85
2021/11/03 09:40:22;;;;;;;3.37;3.07;;;8.50;1.00;;;;;;4887397;29;20180;-85
2021/11/03 09:42:50;;;;;;;3.50;3.20;;;8.50;1.00;;;;;;4885500;29;20196;-85
2021/11/03 09:45:24;;;;;;;3.50;3.13;;;8.60;1.00;;;;;;4885171;29;20285;-85
2021/11/03 09:48:22;;;;;;;3.10;2.90;;;8.70;1.00;;;;;;4885041;29;20211;-85
2021/11/03 09:50:51;;;;;;;2.80;2.60;;;8.70;1.00;;;;;;4894061;29;20190;-84
2021/11/03 09:53:26;;;;;;;3.17;2.63;;;8.70;1.00;;;;;;4878014;29;20196;-85
2021/11/03 09:55:52;;;;;;;2.33;2.17;;;8.90;1.00;;;;;;4881313;29;20692;-84
2021/11/03 09:58:39;;;;;;;3.07;2.77;;;8.80;1.00;;;;;;4878997;29;20226;-83
2021/11/03 10:01:21;;;;;;;3.67;2.80;;;8.80;1.00;;;;;;4875134;29;20226;-82
2021/11/03 10:04:24;;;;;;;4.43;2.33;;;8.80;1.00;;;;;;4885064;29;20202;-84
2021/11/03 10:07:16;;;;;;;2.40;2.30;;;8.80;1.00;;;;;;4884259;29;20615;-85
2021/11/03 10:09:42;;;;;;;3.20;2.70;;;8.80;1.00;;;;;;4879294;29;20224;-83
2021/11/03 10:12:13;;;;;;;2.57;2.37;;;8.80;1.00;;;;;;4882191;29;20198;-84
2021/11/03 10:14:40;;;;;;;2.40;1.90;;;8.90;1.00;;;;;;4883706;29;20197;-84
2021/11/03 10:17:19;;;;;;;2.87;2.30;;;8.90;1.00;;;;;;4883996;29;20201;-84
2021/11/03 10:19:45;;;;;;;2.43;2.23;;;9.00;1.00;;;;;;4894815;29;20195;-84
2021/11/03 10:22:35;;;;;;;2.57;2.37;;;9.00;1.00;;;;;;4876223;29;20232;-84
2021/11/03 10:25:11;;;;;;;4.30;2.90;;;9.10;1.00;;;;;;4884266;29;20266;-85
2021/11/03 10:27:59;;;;;;;2.93;2.73;;;9.10;1.00;;;;;;4880336;29;20217;-87
2021/11/03 10:30:47;;;;;;;2.40;2.20;;;9.20;1.00;;;;;;4881853;29;20199;-86
2021/11/03 10:33:23;;;;;;;3.00;2.77;;;9.20;1.00;;;;;;4875671;29;20178;-87
2021/11/03 10:36:10;;;;;;;3.03;2.63;;;9.20;1.00;;;;;;4881124;29;20762;-83
2021/11/03 10:38:43;;;;;;;4.30;2.30;;;9.30;1.00;;;;;;4889608;29;20201;-84
2021/11/03 10:41:24;;;;;;;2.40;2.20;;;9.30;1.00;;;;;;4882126;29;20260;-85
2021/11/03 10:44:01;;;;;;;3.10;2.33;;;9.20;1.00;;;;;;4882172;29;20555;-85
2021/11/03 10:46:31;;;;;;;2.73;2.50;;;9.30;1.00;;;;;;4883370;29;20219;-85
2021/11/03 10:49:26;;;;;;;2.83;2.60;;;9.20;1.00;;;;;;4875377;29;20317;-84
2021/11/03 10:52:11;;;;;;;2.97;2.63;;;9.20;1.00;;;;;;4878872;29;20325;-84
2021/11/03 10:54:49;;;;;;;2.13;1.83;;;9.20;1.00;;;;;;4890948;29;20185;-84
2021/11/03 10:57:40;;;;;;;2.43;2.23;;;9.20;1.00;;;;;;4883149;29;20211;-84
2021/11/03 11:00:27;;;;;;;2.40;2.20;;;9.50;1.00;;;;;;4868705;29;20231;-84
2021/11/03 11:03:03;;;;;;;2.63;2.43;;;9.40;1.00;;;;;;4869959;29;20198;-84
2021/11/03 11:05:33;;;;;;;2.07;1.97;;;9.20;1.00;;;;;;4883252;29;20219;-84
2021/11/03 11:08:05;;;;;;;3.23;2.27;;;9.20;1.00;;;;;;4875783;29;20191;-84
2021/11/03 11:11:13;;;;;;;2.57;2.37;;;9.20;1.00;;;;;;4870756;29;20200;-85
2021/11/03 11:13:50;;;;;;;2.60;2.40;;;9.30;1.00;;;;;;4808783;29;20193;-83
2021/11/03 11:16:25;;;;;;;4.57;2.43;;;9.40;1.00;;;;;;4872683;29;20667;-83
2021/11/03 11:19:19;;;;;;;1.93;1.83;;;9.60;1.00;;;;;;4889840;29;20214;-84
2021/11/03 11:22:03;;;;;;;2.73;2.20;;;9.80;1.00;;;;;;4885672;29;20232;-83
2021/11/03 11:24:39;;;;;;;2.40;2.20;;;9.80;1.00;;;;;;4886168;29;20252;-84
2021/11/03 11:27:21;;;;;;;2.60;2.00;;;9.80;1.00;;;;;;4888433;29;20223;-84
2021/11/03 11:30:17;;;;;;;2.57;2.37;;;9.90;1.00;;;;;;4880596;29;20727;-84
2021/11/03 11:33:01;;;;;;;2.50;2.30;;;10.00;1.00;;;;;;4880697;29;20209;-84
2021/11/03 11:35:50;;;;;;;3.07;2.30;;;10.00;1.00;;;;;;4879973;29;20196;-83
2021/11/03 11:38:24;;;;;;;1.97;1.80;;;12.70;1.00;;;;;;4838190;29;20213;-84
2021/11/03 11:41:04;;;;;;;2.67;2.40;;;10.20;1.00;;;;;;4883515;29;20198;-84
2021/11/03 11:43:40;;;;;;;2.23;2.10;;;10.20;1.00;;;;;;4873149;29;20227;-84
2021/11/03 11:46:19;;;;;;;2.57;2.33;;;10.30;1.00;;;;;;4880096;29;20231;-84
2021/11/03 11:48:50;;;;;;;1.97;1.87;;;10.30;1.00;;;;;;4880993;29;20218;-83
2021/11/03 11:51:24;;;;;;;2.20;2.00;;;10.30;1.00;;;;;;4881060;29;20196;-86
2021/11/03 11:53:54;;;;;;;2.20;2.00;;;10.30;1.00;;;;;;4880485;29;20199;-85
2021/11/03 11:56:24;;;;;;;1.90;1.80;;;10.30;1.00;;;;;;4882684;29;20214;-85
2021/11/03 11:58:59;;;;;;;2.57;2.37;;;;;;;;;;4881949;29;20687;-85
2021/11/03 12:01:40;;;;;;;2.10;1.90;;;10.20;1.00;;;;;;4882987;29;20303;-86
2021/11/03 12:04:06;;;;;;;2.07;1.87;;;;;;;;;;4885186;29;20303;-86
2021/11/03 12:06:54;;;;;;;2.63;2.43;;;10.20;1.00;;;;;;4882928;29;20634;-85
2021/11/03 12:09:33;;;;;;;3.50;2.20;;;10.20;1.00;;;;;;4876088;29;20694;-85
2021/11/03 12:12:08;;;;;;;2.80;2.27;;;10.20;1.00;;;;;;4883003;29;20626;-86
2021/11/03 12:14:58;;;;;;;1.97;1.87;;;10.10;1.00;;;;;;4876758;29;20226;-86
2021/11/03 12:17:57;;;;;;;1.90;1.80;;;10.20;1.00;;;;;;4875867;29;20229;-85
2021/11/03 12:20:28;;;;;;;1.97;1.87;;;10.30;1.00;;;;;;4874355;29;20211;-86
2021/11/03 12:22:59;;;;;;;2.17;2.07;;;10.30;1.00;;;;;;4880892;29;20183;-83
2021/11/03 12:25:25;;;;;;;2.17;2.00;;;10.30;1.00;;;;;;4878920;29;20228;-82
2021/11/03 12:27:52;;;;;;;2.13;2.00;;;10.40;1.00;;;;;;4877469;29;20204;-81
2021/11/03 12:30:18;;;;;;;1.83;1.73;;;10.20;1.00;;;;;;4880014;29;20681;-82
2021/11/03 12:32:44;;;;;;;3.33;2.17;;;;;;;;;;4879210;29;20189;-82
2021/11/03 12:35:19;;;;;;;2.00;1.90;;;10.20;1.00;;;;;;4878365;29;20647;-82
2021/11/03 12:38:11;;;;;;;1.67;1.57;;;10.20;1.00;;;;;;4883614;29;20630;-82
2021/11/03 12:40:37;;;;;;;2.03;1.93;;;10.30;1.00;;;;;;4877375;29;20197;-81
2021/11/03 12:43:20;;;;;;;2.40;2.10;;;10.30;1.00;;;;;;4882371;29;20269;-81
2021/11/03 12:46:08;;;;;;;2.27;2.07;;;10.20;1.00;;;;;;4886743;29;20234;-81
2021/11/03 12:48:50;;;;;;;2.43;2.13;;;10.20;1.00;;;;;;4880854;29;20211;-81
2021/11/03 12:51:27;;;;;;;2.57;2.03;;;10.30;1.00;;;;;;4883128;29;20745;-83
2021/11/03 12:54:12;;;;;;;2.60;2.00;;;10.30;1.00;;;;;;4885183;29;20188;-83
2021/11/03 12:56:39;;;;;;;2.33;2.13;;;10.50;1.00;;;;;;4884822;29;20360;-82
2021/11/03 12:59:30;;;;;;;2.10;2.00;;;10.50;1.00;;;;;;4882612;29;20303;-82
2021/11/03 13:02:02;;;;;;;2.03;1.87;;;13.20;1.00;;;;;;4869097;29;20516;-83
2021/11/03 13:04:37;;;;;;;2.33;2.20;;;10.40;1.00;;;;;;4884061;29;20211;-85
2021/11/03 13:07:36;;;;;;;2.17;2.07;;;10.40;1.00;;;;;;4877165;29;20333;-85
2021/11/03 13:10:09;;;;;;;3.50;2.20;;;10.30;1.00;;;;;;4878602;29;20229;-85
2021/11/03 13:12:37;;;;;;;2.13;2.00;;;10.20;1.00;;;;;;4884020;29;20191;-84
2021/11/03 13:15:03;;;;;;;2.40;1.60;;;;;;;;;;4887885;29;20198;-85
2021/11/03 13:17:32;;;;;;;2.43;2.00;;;10.20;1.00;;;;;;4883481;29;20200;-85
2021/11/03 13:19:59;;;;;;;2.40;2.20;;;10.20;1.00;;;;;;4882569;29;20198;-84
2021/11/03 13:22:24;;;;;;;3.00;2.80;;;;;;;;;;4886478;29;20188;-84
2021/11/03 13:24:51;;;;;;;4.50;4.10;;;10.20;1.00;;;;;;4879568;29;20201;-84
2021/11/03 13:27:31;;;;;;;5.60;5.10;;;10.20;1.00;;;;;;4881438;29;20200;-82
2021/11/03 13:30:00;;;;;;;3.83;3.53;;;10.20;1.00;;;;;;4884738;29;20561;-83
2021/11/03 13:32:50;;;;;;;3.13;2.43;;;10.20;1.00;;;;;;4886054;29;20190;-83
2021/11/03 13:35:23;;;;;;;2.87;2.67;;;10.30;1.00;;;;;;4879620;29;20196;-85
2021/11/03 13:37:48;;;;;;;3.50;2.33;;;10.30;1.00;;;;;;4881010;29;20480;-86